Terminal Aerodrome Forecast
Issued by NWS Grand Forks, ND

Home | Current Version | Previous Version | Text Only | Print | Product List | Glossary Off
Versions: 1 2 3 4 5 6 7 8 9 10 11 12 13 14 15 16 17

000
FTUS43 KFGF 151100
TAFFAR
TAF
KFAR 151126Z 1512/1612 34020G29KT 3SM -FZRA BR OVC005
     FM151400 35021G30KT P6SM OVC008
     FM152000 35024G30KT P6SM BKN015
     FM160100 34018KT P6SM BKN025=

USA.gov is the U.S. government's official web portal to all federal, state and local government web resources and services.